createdAt,value
2023-04-18T00:01:07.897Z,7.85
2023-04-18T00:03:34.788Z,7.85
2023-04-18T00:06:02.212Z,7.79
2023-04-18T00:08:28.814Z,7.77
2023-04-18T00:10:55.150Z,7.74
2023-04-18T00:13:21.490Z,7.71
2023-04-18T00:15:48.007Z,7.69
2023-04-18T00:18:17.305Z,7.63
2023-04-18T00:20:43.888Z,7.58
2023-04-18T00:23:13.905Z,7.52
2023-04-18T00:25:41.036Z,7.49
2023-04-18T00:28:07.405Z,7.47
2023-04-18T00:30:33.792Z,7.45
2023-04-18T00:33:00.395Z,7.44
2023-04-18T00:35:26.811Z,7.38
2023-04-18T00:37:53.117Z,7.31
2023-04-18T00:40:19.584Z,7.24
2023-04-18T00:42:45.928Z,7.25
2023-04-18T00:45:12.308Z,7.20
2023-04-18T00:47:39.382Z,7.16
2023-04-18T00:50:06.765Z,7.11
2023-04-18T00:52:35.718Z,7.06
2023-04-18T00:55:07.439Z,7.03
2023-04-18T00:57:34.539Z,6.97
2023-04-18T01:00:02.375Z,6.93
2023-04-18T01:02:31.948Z,6.91
2023-04-18T01:04:58.590Z,6.89
2023-04-18T01:07:30.694Z,6.86
2023-04-18T01:09:57.845Z,6.83
2023-04-18T01:12:24.173Z,6.77
2023-04-18T01:14:50.586Z,6.74
2023-04-18T01:17:17.425Z,6.70
2023-04-18T01:19:44.388Z,6.65
2023-04-18T01:22:13.786Z,6.62
2023-04-18T01:24:40.953Z,6.61
2023-04-18T01:27:07.566Z,6.58
2023-04-18T01:29:33.886Z,6.56
2023-04-18T01:32:02.370Z,6.53
2023-04-18T01:34:28.700Z,6.51
2023-04-18T01:36:55.023Z,6.46
2023-04-18T01:39:21.474Z,6.49
2023-04-18T01:41:47.803Z,6.47
2023-04-18T01:44:14.399Z,6.42
2023-04-18T01:46:40.976Z,6.41
2023-04-18T01:49:08.688Z,6.39
2023-04-18T01:51:35.225Z,6.35
2023-04-18T01:54:01.564Z,6.34
2023-04-18T01:56:27.886Z,6.33
2023-04-18T01:58:54.254Z,6.30
2023-04-18T02:01:20.644Z,6.27
2023-04-18T02:03:47.401Z,6.24
2023-04-18T02:06:13.927Z,6.21
2023-04-18T02:08:40.324Z,6.20
2023-04-18T02:11:06.665Z,6.17
2023-04-18T02:13:33.170Z,6.15
2023-04-18T02:15:59.575Z,6.12
2023-04-18T02:18:27.194Z,6.08
2023-04-18T02:20:53.597Z,6.04
2023-04-18T02:23:20.032Z,6.02
2023-04-18T02:25:46.405Z,6.00
2023-04-18T02:28:12.795Z,5.95
2023-04-18T02:30:39.175Z,5.90
2023-04-18T02:33:05.649Z,5.87
2023-04-18T02:35:31.989Z,5.86
2023-04-18T02:37:58.342Z,5.86
2023-04-18T02:40:24.723Z,5.86
2023-04-18T02:42:51.058Z,5.84
2023-04-18T02:45:17.543Z,5.81
2023-04-18T02:47:54.792Z,5.76
2023-04-18T02:50:22.827Z,5.74
2023-04-18T02:52:49.202Z,5.68
2023-04-18T02:55:15.609Z,5.66
2023-04-18T02:57:41.961Z,5.65
2023-04-18T03:00:09.226Z,5.61
2023-04-18T03:02:35.696Z,5.57
2023-04-18T03:05:02.232Z,5.56
2023-04-18T03:07:28.678Z,5.55
2023-04-18T03:09:55.149Z,5.52
2023-04-18T03:12:21.583Z,5.47
2023-04-18T03:14:47.906Z,5.46
2023-04-18T03:17:14.284Z,5.41
2023-04-18T03:19:40.707Z,5.39
2023-04-18T03:22:07.253Z,5.37
2023-04-18T03:24:33.558Z,5.34
2023-04-18T03:27:00.511Z,5.32
2023-04-18T03:29:26.866Z,5.27
2023-04-18T03:31:53.243Z,5.26
2023-04-18T03:34:19.613Z,5.23
2023-04-18T03:36:47.967Z,5.24
2023-04-18T03:39:14.717Z,5.22
2023-04-18T03:41:41.062Z,5.21
2023-04-18T03:44:07.390Z,5.20
2023-04-18T03:46:33.794Z,5.17
2023-04-18T03:49:00.739Z,5.15
2023-04-18T03:51:27.555Z,5.13
2023-04-18T03:53:53.908Z,5.09
2023-04-18T03:56:20.257Z,5.08
2023-04-18T03:58:46.580Z,5.10
2023-04-18T04:01:12.939Z,5.06
2023-04-18T04:03:39.416Z,5.07
2023-04-18T04:06:06.507Z,5.09
2023-04-18T04:08:32.876Z,5.11
2023-04-18T04:10:59.280Z,5.13
2023-04-18T04:13:25.600Z,5.19
2023-04-18T04:15:52.296Z,5.24
2023-04-18T04:18:18.639Z,5.28
2023-04-18T04:20:48.010Z,5.32
2023-04-18T04:23:14.385Z,5.36
2023-04-18T04:25:40.734Z,5.39
2023-04-18T04:28:08.088Z,5.42
2023-04-18T04:30:34.409Z,5.45
2023-04-18T04:33:01.694Z,5.49
2023-04-18T04:35:28.315Z,5.48
2023-04-18T04:37:54.669Z,5.51
2023-04-18T04:40:22.925Z,5.52
2023-04-18T04:42:53.827Z,5.56
2023-04-18T04:45:20.524Z,5.55
2023-04-18T04:47:47.512Z,5.58
2023-04-18T04:50:15.589Z,5.61
2023-04-18T04:52:42.643Z,5.65
2023-04-18T04:55:09.032Z,5.65
2023-04-18T04:57:35.787Z,5.67
2023-04-18T05:00:02.149Z,5.69
2023-04-18T05:02:28.660Z,5.72
2023-04-18T05:04:55.343Z,5.74
2023-04-18T05:07:21.838Z,5.78
2023-04-18T05:09:48.306Z,5.78
2023-04-18T05:12:15.067Z,5.76
2023-04-18T05:14:41.450Z,5.80
2023-04-18T05:17:07.980Z,5.86
2023-04-18T05:19:34.338Z,5.86
2023-04-18T05:22:00.822Z,5.86
2023-04-18T05:24:27.216Z,5.89
2023-04-18T05:26:53.755Z,5.93
2023-04-18T05:29:20.300Z,5.95
2023-04-18T05:31:46.687Z,5.98
2023-04-18T05:34:13.154Z,6.02
2023-04-18T05:36:39.740Z,6.05
2023-04-18T05:39:06.106Z,6.07
2023-04-18T05:41:32.450Z,6.09
2023-04-18T05:44:16.836Z,6.11
2023-04-18T05:46:43.475Z,6.16
2023-04-18T05:49:09.828Z,6.21
2023-04-18T05:51:36.192Z,6.22
2023-04-18T05:54:02.691Z,6.28
2023-04-18T05:56:29.416Z,6.29
2023-04-18T05:58:55.812Z,6.31
2023-04-18T06:01:22.356Z,6.35
2023-04-18T06:03:48.921Z,6.42
2023-04-18T06:06:15.754Z,6.46
2023-04-18T06:08:42.245Z,6.50
2023-04-18T06:11:08.983Z,6.52
2023-04-18T06:13:36.085Z,6.53
2023-04-18T06:16:02.857Z,6.56
2023-04-18T06:18:29.629Z,6.59
2023-04-18T06:20:56.042Z,6.66
2023-04-18T06:23:22.677Z,6.74
2023-04-18T06:25:49.164Z,6.76
2023-04-18T06:28:16.068Z,6.85
2023-04-18T06:30:42.524Z,6.98
2023-04-18T06:33:11.886Z,7.07
2023-04-18T06:35:38.590Z,7.13
2023-04-18T06:38:05.013Z,7.20
2023-04-18T06:40:31.458Z,7.27
2023-04-18T06:42:57.848Z,7.38
2023-04-18T06:45:24.338Z,7.50
2023-04-18T06:47:51.414Z,7.58
2023-04-18T06:50:18.437Z,7.66
2023-04-18T06:52:47.962Z,7.65
2023-04-18T06:55:14.365Z,7.68
2023-04-18T06:57:42.033Z,7.74
2023-04-18T07:00:10.372Z,7.68
2023-04-18T07:02:38.348Z,7.67
2023-04-18T07:05:05.621Z,7.73
2023-04-18T07:07:33.058Z,7.82
2023-04-18T07:09:59.634Z,7.82
2023-04-18T07:12:26.073Z,7.87
2023-04-18T07:14:52.485Z,7.88
2023-04-18T07:17:18.916Z,7.87
2023-04-18T07:19:45.472Z,7.91
2023-04-18T07:22:11.879Z,8.00
2023-04-18T07:24:39.302Z,7.96
2023-04-18T07:27:06.850Z,7.95
2023-04-18T07:29:33.335Z,7.97
2023-04-18T07:31:59.660Z,8.01
2023-04-18T07:34:29.986Z,8.09
2023-04-18T07:36:59.903Z,8.19
2023-04-18T07:39:26.409Z,8.29
2023-04-18T07:41:52.754Z,8.37
2023-04-18T07:44:21.381Z,8.48
2023-04-18T07:46:47.837Z,8.72
2023-04-18T07:49:14.526Z,9.04
2023-04-18T07:51:41.069Z,9.22
2023-04-18T07:54:07.632Z,9.38
2023-04-18T07:56:34.112Z,9.47
2023-04-18T07:59:01.757Z,9.41
2023-04-18T08:01:28.119Z,9.45
2023-04-18T08:03:56.589Z,9.46
2023-04-18T08:06:23.230Z,9.58
2023-04-18T08:08:49.854Z,9.76
2023-04-18T08:11:16.468Z,9.96
2023-04-18T08:13:44.326Z,10.20
2023-04-18T08:16:10.946Z,10.30
2023-04-18T08:18:37.526Z,10.41
2023-04-18T08:21:04.226Z,10.87
2023-04-18T08:23:30.682Z,11.25
2023-04-18T08:25:57.046Z,11.63
2023-04-18T08:28:23.505Z,11.68
2023-04-18T08:30:51.208Z,11.70
2023-04-18T08:33:18.673Z,11.36
2023-04-18T08:35:45.138Z,11.22
2023-04-18T08:38:11.616Z,11.35
2023-04-18T08:40:38.515Z,11.38
2023-04-18T08:43:09.190Z,11.36
2023-04-18T08:45:36.707Z,11.45
2023-04-18T08:48:03.899Z,11.39
2023-04-18T08:50:30.644Z,11.28
2023-04-18T08:52:59.298Z,11.22
2023-04-18T08:55:25.630Z,11.34
2023-04-18T08:57:55.006Z,11.22
2023-04-18T09:00:22.650Z,11.32
2023-04-18T09:02:49.352Z,11.37
2023-04-18T09:05:19.812Z,11.54
2023-04-18T09:07:47.565Z,11.75
2023-04-18T09:10:28.720Z,11.82
2023-04-18T09:12:57.405Z,11.96
2023-04-18T09:15:27.016Z,11.94
2023-04-18T09:17:56.585Z,12.18
2023-04-18T09:20:35.176Z,12.29
2023-04-18T09:23:04.275Z,12.12
2023-04-18T09:25:51.261Z,12.20
2023-04-18T09:28:33.790Z,12.38
2023-04-18T09:31:04.483Z,12.25
2023-04-18T09:33:35.054Z,12.26
2023-04-18T09:36:18.530Z,12.31
2023-04-18T09:38:45.410Z,12.16
2023-04-18T09:41:13.136Z,12.21
2023-04-18T09:43:39.548Z,12.30
2023-04-18T09:46:07.931Z,12.44
2023-04-18T09:48:34.775Z,12.36
2023-04-18T09:51:10.793Z,12.49
2023-04-18T09:53:39.889Z,12.64
2023-04-18T09:56:09.001Z,12.76
2023-04-18T09:58:40.987Z,12.61
2023-04-18T10:01:07.947Z,12.59
2023-04-18T10:03:44.336Z,12.49
2023-04-18T10:06:11.668Z,12.47
2023-04-18T10:08:39.646Z,12.49
2023-04-18T10:11:06.223Z,12.36
2023-04-18T10:13:34.940Z,12.36
2023-04-18T10:16:02.192Z,12.43
2023-04-18T10:18:28.691Z,12.43
2023-04-18T10:21:03.254Z,12.47
2023-04-18T10:23:32.436Z,12.58
2023-04-18T10:25:59.242Z,12.79
2023-04-18T10:28:27.442Z,12.99
2023-04-18T10:31:04.224Z,13.06
2023-04-18T10:33:41.093Z,12.91
2023-04-18T10:36:08.928Z,12.75
2023-04-18T10:38:47.414Z,12.63
2023-04-18T10:41:34.082Z,12.64
2023-04-18T10:44:15.611Z,12.77
2023-04-18T10:46:52.544Z,12.95
2023-04-18T10:49:21.596Z,13.06
2023-04-18T10:51:51.053Z,13.26
2023-04-18T10:54:22.146Z,13.64
2023-04-18T10:56:58.962Z,14.05
2023-04-18T10:59:26.832Z,14.34
2023-04-18T11:02:01.712Z,14.52
2023-04-18T11:04:28.451Z,14.71
2023-04-18T11:06:56.986Z,15.03
2023-04-18T11:09:24.371Z,15.15
2023-04-18T11:12:06.079Z,14.90
2023-04-18T11:14:42.078Z,14.70
2023-04-18T11:17:17.976Z,14.52
2023-04-18T11:19:44.378Z,14.25
2023-04-18T11:22:11.956Z,14.19
2023-04-18T11:24:39.052Z,14.34
2023-04-18T11:27:05.552Z,14.38
2023-04-18T11:29:32.323Z,14.48
2023-04-18T11:31:58.942Z,14.57
2023-04-18T11:34:32.885Z,14.73
2023-04-18T11:36:59.939Z,14.65
2023-04-18T11:39:26.335Z,14.53
2023-04-18T11:41:52.944Z,14.41
2023-04-18T11:44:26.790Z,14.55
2023-04-18T11:46:53.750Z,14.45
2023-04-18T11:49:31.952Z,14.29
2023-04-18T11:51:59.454Z,14.33
2023-04-18T11:54:39.476Z,14.35
2023-04-18T11:57:07.024Z,14.53
2023-04-18T11:59:33.565Z,14.39
2023-04-18T12:02:14.808Z,14.27
2023-04-18T12:04:53.086Z,14.27
2023-04-18T12:07:39.124Z,14.15
2023-04-18T12:10:23.867Z,13.96
2023-04-18T12:12:51.647Z,13.92
2023-04-18T12:15:19.721Z,13.85
2023-04-18T12:17:51.800Z,13.71
2023-04-18T12:20:18.426Z,13.68
2023-04-18T12:22:45.636Z,13.74
2023-04-18T12:25:27.180Z,13.79
2023-04-18T12:28:14.744Z,13.76
2023-04-18T12:30:42.451Z,13.83
2023-04-18T12:33:11.640Z,13.85
2023-04-18T12:35:37.999Z,13.76
2023-04-18T12:38:05.708Z,13.73
2023-04-18T12:40:32.155Z,13.66
2023-04-18T12:42:58.479Z,13.66
2023-04-18T12:45:25.010Z,13.69
2023-04-18T12:47:52.922Z,13.74
2023-04-18T12:50:24.392Z,13.82
2023-04-18T12:52:55.603Z,13.74
2023-04-18T12:55:22.750Z,13.68
2023-04-18T12:57:51.454Z,13.61
2023-04-18T13:00:17.882Z,13.59
2023-04-18T13:02:45.080Z,13.54
2023-04-18T13:05:15.070Z,13.55
2023-04-18T13:07:42.529Z,13.56
2023-04-18T13:10:13.832Z,13.57
2023-04-18T13:12:41.068Z,13.50
2023-04-18T13:15:08.871Z,13.48
2023-04-18T13:17:38.942Z,13.34
2023-04-18T13:20:10.680Z,13.33
2023-04-18T13:22:37.313Z,13.34
2023-04-18T13:25:04.051Z,13.32
2023-04-18T13:27:30.536Z,13.36
2023-04-18T13:29:57.311Z,13.38
2023-04-18T13:32:24.275Z,13.48
2023-04-18T13:34:50.996Z,13.49
2023-04-18T13:37:17.759Z,13.45
2023-04-18T13:39:44.263Z,13.42
2023-04-18T13:42:10.608Z,13.50
2023-04-18T13:44:38.053Z,13.53
2023-04-18T13:47:05.911Z,13.56
2023-04-18T13:49:33.544Z,13.63
2023-04-18T13:52:00.034Z,13.71
2023-04-18T13:54:28.611Z,13.77
2023-04-18T13:56:59.639Z,13.73
2023-04-18T13:59:26.717Z,13.71
2023-04-18T14:01:54.570Z,13.69
2023-04-18T14:04:22.420Z,13.81
2023-04-18T14:06:49.234Z,14.06
2023-04-18T14:09:16.618Z,14.17
2023-04-18T14:11:43.366Z,14.35
2023-04-18T14:14:09.970Z,14.29
2023-04-18T14:16:36.550Z,14.25
2023-04-18T14:19:02.970Z,14.25
2023-04-18T14:21:29.833Z,14.24
2023-04-18T14:23:56.255Z,14.22
2023-04-18T14:26:22.819Z,14.21
2023-04-18T14:28:49.182Z,14.28
2023-04-18T14:31:16.120Z,14.37
2023-04-18T14:33:42.612Z,14.38
2023-04-18T14:36:09.707Z,14.38
2023-04-18T14:38:36.412Z,14.32
2023-04-18T14:41:05.980Z,14.35
2023-04-18T14:43:32.477Z,14.64
2023-04-18T14:45:59.737Z,14.78
2023-04-18T14:48:26.993Z,14.63
2023-04-18T14:51:02.435Z,14.44
2023-04-18T14:53:29.183Z,14.41
2023-04-18T14:55:56.164Z,14.71
2023-04-18T14:58:22.712Z,14.81
2023-04-18T15:00:49.243Z,14.67
2023-04-18T15:03:16.569Z,14.49
2023-04-18T15:05:46.323Z,14.37
2023-04-18T15:08:14.423Z,14.40
2023-04-18T15:10:42.244Z,14.63
2023-04-18T15:13:09.855Z,14.56
2023-04-18T15:15:37.689Z,14.68
2023-04-18T15:18:04.545Z,14.75
2023-04-18T15:20:31.057Z,14.92
2023-04-18T15:22:57.413Z,15.02
2023-04-18T15:25:23.879Z,15.15
2023-04-18T15:27:50.234Z,15.28
2023-04-18T15:30:16.715Z,15.16
2023-04-18T15:32:44.056Z,15.14
2023-04-18T15:35:11.799Z,15.28
2023-04-18T15:37:38.572Z,15.33
2023-04-18T15:40:06.993Z,15.28
2023-04-18T15:42:33.500Z,15.28
2023-04-18T15:44:59.849Z,15.28
2023-04-18T15:47:26.990Z,15.38
2023-04-18T15:49:53.495Z,15.44
2023-04-18T15:52:19.855Z,15.40
2023-04-18T15:54:46.176Z,15.44
2023-04-18T15:57:12.608Z,15.59
2023-04-18T15:59:38.992Z,15.68
2023-04-18T16:02:06.735Z,15.66
2023-04-18T16:04:34.363Z,15.63
2023-04-18T16:07:00.834Z,15.66
2023-04-18T16:09:27.277Z,15.60
2023-04-18T16:11:53.714Z,15.56
2023-04-18T16:14:20.060Z,15.54
2023-04-18T16:16:46.379Z,15.49
2023-04-18T16:19:12.711Z,15.29
2023-04-18T16:21:39.073Z,15.35
2023-04-18T16:24:05.709Z,15.26
2023-04-18T16:26:32.087Z,15.08
2023-04-18T16:28:58.455Z,14.93
2023-04-18T16:31:24.840Z,14.80
2023-04-18T16:33:52.540Z,14.66
2023-04-18T16:36:19.159Z,14.68
2023-04-18T16:38:45.658Z,14.86
2023-04-18T16:41:11.994Z,15.01
2023-04-18T16:43:38.432Z,15.06
2023-04-18T16:46:05.533Z,15.12
2023-04-18T16:48:32.026Z,15.17
2023-04-18T16:50:58.463Z,15.16
2023-04-18T16:53:25.125Z,15.01
2023-04-18T16:55:52.982Z,14.99
2023-04-18T16:58:19.839Z,14.90
2023-04-18T17:00:46.297Z,14.77
2023-04-18T17:03:12.674Z,14.62
2023-04-18T17:05:39.351Z,14.54
2023-04-18T17:08:06.555Z,14.49
2023-04-18T17:10:33.345Z,14.41
2023-04-18T17:13:02.256Z,14.38
2023-04-18T17:15:28.784Z,14.29
2023-04-18T17:17:56.378Z,14.17
2023-04-18T17:20:23.576Z,14.01
2023-04-18T17:22:49.905Z,13.93
2023-04-18T17:25:16.383Z,13.82
2023-04-18T17:27:43.107Z,13.74
2023-04-18T17:30:09.904Z,13.66
2023-04-18T17:32:36.297Z,13.61
2023-04-18T17:35:06.364Z,13.58
2023-04-18T17:37:32.723Z,13.56
2023-04-18T17:40:00.280Z,13.55
2023-04-18T17:42:26.631Z,13.55
2023-04-18T17:44:52.961Z,13.50
2023-04-18T17:47:19.301Z,13.44
2023-04-18T17:49:45.977Z,13.40
2023-04-18T17:52:12.314Z,13.36
2023-04-18T17:54:38.645Z,13.36
2023-04-18T17:57:04.998Z,13.33
2023-04-18T17:59:37.362Z,13.24
2023-04-18T18:02:04.843Z,13.13
2023-04-18T18:04:31.644Z,13.06
2023-04-18T18:06:58.721Z,13.01
2023-04-18T18:09:25.178Z,12.93
2023-04-18T18:11:52.971Z,12.86
2023-04-18T18:14:21.270Z,12.81
2023-04-18T18:16:47.727Z,12.74
2023-04-18T18:19:14.870Z,12.64
2023-04-18T18:21:41.337Z,12.56
2023-04-18T18:24:08.261Z,12.45
2023-04-18T18:26:36.120Z,12.37
2023-04-18T18:29:09.111Z,12.29
2023-04-18T18:31:35.994Z,12.21
2023-04-18T18:34:02.411Z,12.11
2023-04-18T18:36:28.775Z,12.04
2023-04-18T18:38:55.373Z,12.01
2023-04-18T18:41:24.295Z,11.97
2023-04-18T18:43:51.823Z,11.89
2023-04-18T18:46:18.287Z,11.82
2023-04-18T18:48:44.636Z,11.74
2023-04-18T18:51:11.543Z,11.69
2023-04-18T18:53:40.228Z,11.70
2023-04-18T18:56:08.590Z,11.66
2023-04-18T18:58:35.595Z,11.62
2023-04-18T19:01:03.204Z,11.58
2023-04-18T19:03:29.888Z,11.54
2023-04-18T19:05:56.614Z,11.46
2023-04-18T19:08:23.211Z,11.30
2023-04-18T19:10:50.482Z,11.18
2023-04-18T19:13:18.796Z,11.09
2023-04-18T19:15:45.162Z,11.06
2023-04-18T19:18:12.327Z,11.06
2023-04-18T19:20:40.307Z,10.98
2023-04-18T19:23:06.677Z,10.84
2023-04-18T19:25:33.114Z,10.74
2023-04-18T19:27:59.528Z,10.74
2023-04-18T19:30:25.861Z,10.76
2023-04-18T19:32:52.221Z,10.74
2023-04-18T19:35:18.604Z,10.72
2023-04-18T19:37:44.946Z,10.74
2023-04-18T19:40:11.659Z,10.71
2023-04-18T19:42:38.041Z,10.63
2023-04-18T19:45:05.620Z,10.58
2023-04-18T19:47:33.564Z,10.52
2023-04-18T19:50:01.091Z,10.49
2023-04-18T19:52:27.503Z,10.48
2023-04-18T19:54:55.060Z,10.47
2023-04-18T19:57:21.761Z,10.45
2023-04-18T19:59:48.087Z,10.46
2023-04-18T20:02:14.412Z,10.45
2023-04-18T20:04:41.800Z,10.41
2023-04-18T20:07:08.230Z,10.41
2023-04-18T20:09:34.581Z,10.39
2023-04-18T20:12:01.988Z,10.35
2023-04-18T20:14:29.353Z,10.29
2023-04-18T20:16:56.518Z,10.25
2023-04-18T20:19:26.723Z,10.24
2023-04-18T20:21:53.154Z,10.21
2023-04-18T20:24:21.834Z,10.15
2023-04-18T20:26:48.230Z,10.13
2023-04-18T20:29:14.698Z,10.11
2023-04-18T20:31:42.326Z,10.09
2023-04-18T20:34:09.747Z,10.05
2023-04-18T20:36:41.294Z,10.05
2023-04-18T20:39:12.572Z,10.02
2023-04-18T20:41:49.077Z,9.99
2023-04-18T20:44:22.069Z,9.93
2023-04-18T20:46:48.407Z,9.91
2023-04-18T20:49:14.890Z,9.91
2023-04-18T20:51:41.405Z,9.87
2023-04-18T20:54:07.723Z,9.81
2023-04-18T20:56:36.374Z,9.80
2023-04-18T20:59:04.666Z,9.76
2023-04-18T21:01:31.366Z,9.72
2023-04-18T21:03:57.886Z,9.70
2023-04-18T21:06:24.400Z,9.64
2023-04-18T21:08:50.706Z,9.58
2023-04-18T21:11:17.039Z,9.57
2023-04-18T21:13:43.392Z,9.56
2023-04-18T21:16:10.569Z,9.49
2023-04-18T21:18:37.185Z,9.47
2023-04-18T21:21:04.006Z,9.48
2023-04-18T21:23:30.438Z,9.48
2023-04-18T21:25:56.940Z,9.45
2023-04-18T21:28:23.306Z,9.43
2023-04-18T21:30:49.637Z,9.44
2023-04-18T21:33:16.358Z,9.39
2023-04-18T21:35:42.697Z,9.36
2023-04-18T21:38:09.064Z,9.33
2023-04-18T21:40:35.364Z,9.31
2023-04-18T21:43:01.722Z,9.28
2023-04-18T21:45:28.097Z,9.25
2023-04-18T21:47:54.561Z,9.21
2023-04-18T21:50:21.068Z,9.19
2023-04-18T21:52:47.374Z,9.17
2023-04-18T21:55:13.692Z,9.15
2023-04-18T21:57:40.051Z,9.13
2023-04-18T22:00:10.652Z,9.11
2023-04-18T22:02:37.196Z,9.07
2023-04-18T22:05:03.780Z,9.03
2023-04-18T22:07:30.938Z,8.99
2023-04-18T22:09:59.522Z,8.97
2023-04-18T22:12:26.293Z,8.93
2023-04-18T22:14:52.755Z,8.90
2023-04-18T22:17:19.088Z,8.88
2023-04-18T22:19:47.126Z,8.84
2023-04-18T22:22:13.463Z,8.78
2023-04-18T22:24:39.774Z,8.76
2023-04-18T22:27:06.179Z,8.73
2023-04-18T22:29:32.646Z,8.73
2023-04-18T22:31:58.977Z,8.72
2023-04-18T22:34:25.331Z,8.66
2023-04-18T22:36:51.674Z,8.65
2023-04-18T22:39:18.113Z,8.63
2023-04-18T22:41:44.449Z,8.63
2023-04-18T22:44:10.763Z,8.60
2023-04-18T22:46:38.362Z,8.58
2023-04-18T22:49:05.427Z,8.57
2023-04-18T22:51:31.788Z,8.57
2023-04-18T22:53:58.098Z,8.56
2023-04-18T22:56:24.487Z,8.55
2023-04-18T22:58:50.877Z,8.53
2023-04-18T23:01:17.458Z,8.52
2023-04-18T23:03:43.964Z,8.52
2023-04-18T23:06:10.928Z,8.49
2023-04-18T23:08:37.231Z,8.48
2023-04-18T23:11:03.563Z,8.43
2023-04-18T23:13:29.884Z,8.40
2023-04-18T23:15:56.264Z,8.35
2023-04-18T23:18:22.674Z,8.34
2023-04-18T23:20:48.982Z,8.32
2023-04-18T23:23:15.322Z,8.27
2023-04-18T23:25:41.643Z,8.26
2023-04-18T23:28:08.833Z,8.27
2023-04-18T23:30:36.126Z,8.31
2023-04-18T23:33:02.524Z,8.31
2023-04-18T23:35:28.862Z,8.30
2023-04-18T23:37:56.925Z,8.34
2023-04-18T23:40:23.424Z,8.35
2023-04-18T23:42:49.823Z,8.35
2023-04-18T23:45:16.549Z,8.38
2023-04-18T23:47:42.955Z,8.39
2023-04-18T23:50:09.771Z,8.38
2023-04-18T23:52:38.027Z,8.39
2023-04-18T23:55:04.685Z,8.39
2023-04-18T23:57:31.117Z,8.38
2023-04-18T23:59:57.436Z,8.37
